Irmo, South Carolina
Current Conditions -  °F | °C
As of 9:56 PM on Friday 19 Dec 2014 (Local Time) from KCAE Reporting Station
Broken Clouds Broken Clouds  
Wind Chill: 50°   Ceiling: 15000
Heat Index: 50°   Visibility: 10mi
Dew Point: 40°   Wind: 0mph
Humidity: 68%   Direction: NA
Pressure: 30.15"   Gusts: NA
Location:  34.09°N, 81.18°W
Report Text: KCAE 200256Z 00000KT 10SM BKN150 10/04 A3015 RMK AO2 SLP208 T01000044 51007
Loading
Personal Weather Stations






























Interactive Weather Map New forecast layout! Learn more

10-Day Weather Forecast

Advertisements
Track Severe Weather on mobile